createdAt,value
2022-09-24T00:00:22.309Z,1010.53
2022-09-24T00:01:22.591Z,1010.52
2022-09-24T00:02:22.986Z,1010.51
2022-09-24T00:03:23.263Z,1010.59
2022-09-24T00:04:23.754Z,1010.52
2022-09-24T00:05:23.791Z,1010.46
2022-09-24T00:06:24.169Z,1010.49
2022-09-24T00:07:24.485Z,1010.45
2022-09-24T00:08:24.722Z,1010.51
2022-09-24T00:09:24.952Z,1010.51
2022-09-24T00:10:25.307Z,1010.50
2022-09-24T00:11:25.572Z,1010.48
2022-09-24T00:12:25.829Z,1010.47
2022-09-24T00:13:26.042Z,1010.47
2022-09-24T00:14:26.381Z,1010.43
2022-09-24T00:15:26.701Z,1010.49
2022-09-24T00:16:27.040Z,1010.43
2022-09-24T00:17:27.262Z,1010.49
2022-09-24T00:18:27.493Z,1010.43
2022-09-24T00:19:27.714Z,1010.46
2022-09-24T00:20:28.063Z,1010.40
2022-09-24T00:21:28.424Z,1010.43
2022-09-24T00:22:28.671Z,1010.45
2022-09-24T00:23:28.923Z,1010.35
2022-09-24T00:24:29.154Z,1010.38
2022-09-24T00:25:29.386Z,1010.37
2022-09-24T00:26:29.666Z,1010.35
2022-09-24T00:27:29.878Z,1010.36
2022-09-24T00:28:30.257Z,1010.37
2022-09-24T00:29:30.506Z,1010.33
2022-09-24T00:30:30.746Z,1010.34
2022-09-24T00:31:31.109Z,1010.31
2022-09-24T00:32:31.316Z,1010.28
2022-09-24T00:33:31.545Z,1010.30
2022-09-24T00:34:31.748Z,1010.30
2022-09-24T00:35:32.094Z,1010.29
2022-09-24T00:36:32.432Z,1010.31
2022-09-24T00:37:32.759Z,1010.26
2022-09-24T00:38:33.100Z,1010.25
2022-09-24T00:39:33.443Z,1010.28
2022-09-24T00:40:33.843Z,1010.27
2022-09-24T00:41:34.068Z,1010.25
2022-09-24T00:42:34.433Z,1010.26
2022-09-24T00:43:34.702Z,1010.25
2022-09-24T00:44:35.043Z,1010.26
2022-09-24T00:45:35.370Z,1010.24
2022-09-24T00:46:35.801Z,1010.23
2022-09-24T00:47:36.007Z,1010.25
2022-09-24T00:48:36.304Z,1010.20
2022-09-24T00:49:36.661Z,1010.24
2022-09-24T00:50:36.891Z,1010.20
2022-09-24T00:51:37.115Z,1010.16
2022-09-24T00:52:37.320Z,1010.18
2022-09-24T00:53:37.659Z,1010.23
2022-09-24T00:54:37.987Z,1010.19
2022-09-24T00:55:38.343Z,1010.24
2022-09-24T00:56:38.561Z,1010.18
2022-09-24T00:57:38.908Z,1010.19
2022-09-24T00:58:39.231Z,1010.17
2022-09-24T00:59:39.561Z,1010.21
2022-09-24T01:00:40.020Z,1010.17
2022-09-24T01:01:40.301Z,1010.11
2022-09-24T01:02:40.541Z,1010.11
2022-09-24T01:03:40.875Z,1010.12
2022-09-24T01:04:41.212Z,1010.11
2022-09-24T01:05:41.567Z,1010.11
2022-09-24T01:06:41.786Z,1010.09
2022-09-24T01:07:42.139Z,1010.09
2022-09-24T01:08:42.466Z,1010.16
2022-09-24T01:09:42.797Z,1010.15
2022-09-24T01:10:43.138Z,1010.11
2022-09-24T01:11:43.486Z,1010.08
2022-09-24T01:12:43.851Z,1010.09
2022-09-24T01:13:44.217Z,1010.10
2022-09-24T01:14:44.375Z,1010.12
2022-09-24T01:15:44.779Z,1010.14
2022-09-24T01:16:44.965Z,1010.09
2022-09-24T01:17:45.300Z,1010.09
2022-09-24T01:18:45.638Z,1010.00
2022-09-24T01:19:45.992Z,1010.08
2022-09-24T01:20:46.191Z,1010.05
2022-09-24T01:21:46.534Z,1010.04
2022-09-24T01:22:46.864Z,1010.02
2022-09-24T01:23:48.999Z,1009.99
2022-09-24T01:24:47.567Z,1010.04
2022-09-24T01:25:47.782Z,1009.98
2022-09-24T01:26:48.139Z,1009.97
2022-09-24T01:27:48.406Z,1009.98
2022-09-24T01:28:48.640Z,1009.95
2022-09-24T01:29:48.991Z,1010.00
2022-09-24T01:30:49.333Z,1009.96
2022-09-24T01:31:49.721Z,1009.97
2022-09-24T01:32:49.931Z,1009.96
2022-09-24T01:33:50.271Z,1009.99
2022-09-24T01:34:50.622Z,1009.94
2022-09-24T01:35:50.852Z,1009.93
2022-09-24T01:36:51.202Z,1009.89
2022-09-24T01:37:51.567Z,1009.92
2022-09-24T01:38:51.754Z,1009.87
2022-09-24T01:39:52.115Z,1009.88
2022-09-24T01:40:52.479Z,1009.83
2022-09-24T01:41:52.753Z,1009.81
2022-09-24T01:42:53.074Z,1009.80
2022-09-24T01:43:53.416Z,1009.76
2022-09-24T01:44:53.783Z,1009.82
2022-09-24T01:45:53.994Z,1009.78
2022-09-24T01:46:54.379Z,1009.76
2022-09-24T01:47:54.628Z,1009.80
2022-09-24T01:48:54.997Z,1009.75
2022-09-24T01:49:55.217Z,1009.73
2022-09-24T01:50:55.616Z,1009.70
2022-09-24T01:51:55.832Z,1009.72
2022-09-24T01:52:56.168Z,1009.69
2022-09-24T01:53:56.592Z,1009.71
2022-09-24T01:54:56.814Z,1009.73
2022-09-24T01:55:57.047Z,1009.67
2022-09-24T01:56:57.268Z,1009.69
2022-09-24T01:57:57.597Z,1009.66
2022-09-24T01:58:57.974Z,1009.65
2022-09-24T01:59:58.211Z,1009.65
2022-09-24T02:00:58.467Z,1009.63
2022-09-24T02:01:58.767Z,1009.71
2022-09-24T02:02:58.939Z,1009.68
2022-09-24T02:04:06.806Z,1009.65
2022-09-24T02:04:59.527Z,1009.68
2022-09-24T02:06:00.089Z,1009.61
2022-09-24T02:07:00.262Z,1009.64
2022-09-24T02:08:00.448Z,1009.68
2022-09-24T02:09:00.741Z,1009.66
2022-09-24T02:10:00.975Z,1009.67
2022-09-24T02:11:01.211Z,1009.68
2022-09-24T02:12:01.441Z,1009.67
2022-09-24T02:13:01.671Z,1009.63
2022-09-24T02:14:02.248Z,1009.66
2022-09-24T02:15:02.349Z,1009.70
2022-09-24T02:16:02.644Z,1009.67
2022-09-24T02:17:02.871Z,1009.68
2022-09-24T02:18:03.122Z,1009.69
2022-09-24T02:19:03.363Z,1009.63
2022-09-24T02:20:03.653Z,1009.64
2022-09-24T02:21:03.905Z,1009.66
2022-09-24T02:22:04.133Z,1009.63
2022-09-24T02:23:04.495Z,1009.68
2022-09-24T02:24:05.713Z,1009.59
2022-09-24T02:25:05.023Z,1009.68
2022-09-24T02:26:05.290Z,1009.61
2022-09-24T02:27:05.522Z,1009.64
2022-09-24T02:28:05.904Z,1009.58
2022-09-24T02:29:06.184Z,1009.60
2022-09-24T02:30:06.465Z,1009.61
2022-09-24T02:31:06.719Z,1009.51
2022-09-24T02:32:06.967Z,1009.51
2022-09-24T02:33:07.189Z,1009.51
2022-09-24T02:34:07.627Z,1009.53
2022-09-24T02:35:07.876Z,1009.45
2022-09-24T02:36:08.161Z,1009.52
2022-09-24T02:37:08.377Z,1009.49
2022-09-24T02:38:08.628Z,1009.52
2022-09-24T02:39:08.852Z,1009.51
2022-09-24T02:40:09.271Z,1009.45
2022-09-24T02:41:09.504Z,1009.47
2022-09-24T02:42:09.769Z,1009.53
2022-09-24T02:43:10.072Z,1009.46
2022-09-24T02:44:10.329Z,1009.46
2022-09-24T02:45:10.590Z,1009.50
2022-09-24T02:46:10.904Z,1009.47
2022-09-24T02:47:11.120Z,1009.43
2022-09-24T02:48:11.546Z,1009.44
2022-09-24T02:49:11.764Z,1009.47
2022-09-24T02:50:12.119Z,1009.44
2022-09-24T02:51:12.332Z,1009.51
2022-09-24T02:52:12.711Z,1009.45
2022-09-24T02:53:12.944Z,1009.46
2022-09-24T02:54:13.183Z,1009.53
2022-09-24T02:55:13.402Z,1009.42
2022-09-24T02:56:13.755Z,1009.48
2022-09-24T02:57:14.108Z,1009.41
2022-09-24T02:58:14.358Z,1009.43
2022-09-24T02:59:14.563Z,1009.42
2022-09-24T03:00:14.930Z,1009.42
2022-09-24T03:01:15.243Z,1009.44
2022-09-24T03:02:15.572Z,1009.42
2022-09-24T03:03:15.729Z,1009.42
2022-09-24T03:04:16.009Z,1009.43
2022-09-24T03:05:16.353Z,1009.37
2022-09-24T03:06:16.595Z,1009.40
2022-09-24T03:07:16.833Z,1009.43
2022-09-24T03:08:17.066Z,1009.41
2022-09-24T03:09:17.374Z,1009.42
2022-09-24T03:10:17.637Z,1009.41
2022-09-24T03:11:18.929Z,1009.38
2022-09-24T03:12:18.196Z,1009.42
2022-09-24T03:13:18.436Z,1009.44
2022-09-24T03:14:18.687Z,1009.46
2022-09-24T03:15:18.949Z,1009.41
2022-09-24T03:16:19.335Z,1009.43
2022-09-24T03:17:19.387Z,1009.40
2022-09-24T03:18:19.767Z,1009.45
2022-09-24T03:19:20.006Z,1009.46
2022-09-24T03:20:20.228Z,1009.45
2022-09-24T03:21:20.443Z,1009.43
2022-09-24T03:22:20.718Z,1009.42
2022-09-24T03:23:20.939Z,1009.41
2022-09-24T03:24:21.304Z,1009.48
2022-09-24T03:25:21.567Z,1009.44
2022-09-24T03:26:21.791Z,1009.43
2022-09-24T03:27:22.143Z,1009.48
2022-09-24T03:28:22.366Z,1009.47
2022-09-24T03:29:22.732Z,1009.41
2022-09-24T03:30:22.959Z,1009.43
2022-09-24T03:31:23.369Z,1009.41
2022-09-24T03:32:23.641Z,1009.45
2022-09-24T03:33:23.879Z,1009.40
2022-09-24T03:34:24.130Z,1009.42
2022-09-24T03:35:24.336Z,1009.36
2022-09-24T03:36:24.708Z,1009.38
2022-09-24T03:37:24.988Z,1009.41
2022-09-24T03:38:25.255Z,1009.40
2022-09-24T03:39:25.534Z,1009.43
2022-09-24T03:40:25.831Z,1009.40
2022-09-24T03:41:26.051Z,1009.33
2022-09-24T03:42:26.395Z,1009.34
2022-09-24T03:43:26.625Z,1009.33
2022-09-24T03:44:27.364Z,1009.32
2022-09-24T03:45:27.257Z,1009.38
2022-09-24T03:46:27.713Z,1009.37
2022-09-24T03:47:27.912Z,1009.37
2022-09-24T03:48:28.265Z,1009.30
2022-09-24T03:49:28.606Z,1009.30
2022-09-24T03:50:28.808Z,1009.36
2022-09-24T03:51:29.079Z,1009.32
2022-09-24T03:52:29.276Z,1009.24
2022-09-24T03:53:29.618Z,1009.26
2022-09-24T03:54:30.363Z,1009.29
2022-09-24T03:55:30.257Z,1009.25
2022-09-24T03:56:30.617Z,1009.23
2022-09-24T03:57:30.837Z,1009.23
2022-09-24T03:58:31.181Z,1009.25
2022-09-24T03:59:31.630Z,1009.21
2022-09-24T04:00:31.879Z,1009.21
2022-09-24T04:01:32.160Z,1009.19
2022-09-24T04:02:32.479Z,1009.14
2022-09-24T04:03:32.717Z,1009.22
2022-09-24T04:04:33.070Z,1009.16
2022-09-24T04:05:33.268Z,1009.24
2022-09-24T04:06:33.509Z,1009.17
2022-09-24T04:07:33.721Z,1009.17
2022-09-24T04:08:34.076Z,1009.19
2022-09-24T04:09:34.442Z,1009.14
2022-09-24T04:10:34.537Z,1009.19
2022-09-24T04:11:34.759Z,1009.12
2022-09-24T04:12:35.107Z,1009.19
2022-09-24T04:13:35.463Z,1009.11
2022-09-24T04:14:35.674Z,1009.15
2022-09-24T04:15:36.040Z,1009.14
2022-09-24T04:16:36.346Z,1009.14
2022-09-24T04:17:36.589Z,1009.13
2022-09-24T04:18:39.309Z,1009.08
2022-09-24T04:19:37.077Z,1009.14
2022-09-24T04:20:37.285Z,1009.14
2022-09-24T04:21:37.583Z,1009.13
2022-09-24T04:22:37.873Z,1009.17
2022-09-24T04:23:38.152Z,1009.11
2022-09-24T04:24:38.385Z,1009.12
2022-09-24T04:25:38.661Z,1009.15
2022-09-24T04:26:38.874Z,1009.18
2022-09-24T04:27:39.333Z,1009.20
2022-09-24T04:28:39.589Z,1009.14
2022-09-24T04:29:39.831Z,1009.17
2022-09-24T04:30:40.054Z,1009.21
2022-09-24T04:31:40.420Z,1009.16
2022-09-24T04:32:40.515Z,1009.22
2022-09-24T04:33:40.894Z,1009.18
2022-09-24T04:34:41.127Z,1009.16
2022-09-24T04:35:41.387Z,1009.16
2022-09-24T04:36:41.647Z,1009.16
2022-09-24T04:37:41.898Z,1009.09
2022-09-24T04:38:42.300Z,1009.13
2022-09-24T04:39:42.376Z,1009.10
2022-09-24T04:40:42.682Z,1009.12
2022-09-24T04:41:42.910Z,1009.13
2022-09-24T04:42:43.260Z,1009.14
2022-09-24T04:43:43.511Z,1009.09
2022-09-24T04:44:43.781Z,1009.11
2022-09-24T04:45:44.069Z,1009.13
2022-09-24T04:46:44.417Z,1009.12
2022-09-24T04:47:44.580Z,1009.15
2022-09-24T04:48:44.861Z,1009.13
2022-09-24T04:49:45.123Z,1009.11
2022-09-24T04:50:46.483Z,1009.13
2022-09-24T04:51:45.730Z,1009.17
2022-09-24T04:52:45.982Z,1009.15
2022-09-24T04:53:46.251Z,1009.17
2022-09-24T04:54:46.493Z,1009.14
2022-09-24T04:55:46.721Z,1009.16
2022-09-24T04:56:47.082Z,1009.19
2022-09-24T04:57:47.311Z,1009.11
2022-09-24T04:58:47.721Z,1009.22
2022-09-24T04:59:47.984Z,1009.19
2022-09-24T05:00:48.303Z,1009.14
2022-09-24T05:01:48.619Z,1009.18
2022-09-24T05:02:48.962Z,1009.18
2022-09-24T05:03:49.623Z,1009.17
2022-09-24T05:04:49.555Z,1009.18
2022-09-24T05:05:49.822Z,1009.22
2022-09-24T05:06:50.075Z,1009.19
2022-09-24T05:07:50.344Z,1009.19
2022-09-24T05:08:51.558Z,1009.15
2022-09-24T05:09:50.845Z,1009.14
2022-09-24T05:10:51.095Z,1009.14
2022-09-24T05:11:51.385Z,1009.12
2022-09-24T05:12:51.675Z,1009.12
2022-09-24T05:13:51.927Z,1009.14
2022-09-24T05:14:52.168Z,1009.13
2022-09-24T05:15:52.465Z,1009.11
2022-09-24T05:16:52.722Z,1009.11
2022-09-24T05:17:52.998Z,1009.17
2022-09-24T05:18:53.258Z,1009.17
2022-09-24T05:19:53.543Z,1009.17
2022-09-24T05:20:53.778Z,1009.16
2022-09-24T05:21:54.047Z,1009.17
2022-09-24T05:22:54.309Z,1009.18
2022-09-24T05:23:54.578Z,1009.19
2022-09-24T05:24:54.859Z,1009.14
2022-09-24T05:25:55.128Z,1009.12
2022-09-24T05:26:55.367Z,1009.16
2022-09-24T05:27:55.652Z,1009.21
2022-09-24T05:28:55.892Z,1009.13
2022-09-24T05:29:56.123Z,1009.14
2022-09-24T05:30:56.415Z,1009.16
2022-09-24T05:31:56.659Z,1009.20
2022-09-24T05:32:56.942Z,1009.21
2022-09-24T05:33:57.182Z,1009.14
2022-09-24T05:34:57.432Z,1009.20
2022-09-24T05:35:57.690Z,1009.20
2022-09-24T05:36:57.959Z,1009.12
2022-09-24T05:37:58.204Z,1009.11
2022-09-24T05:38:58.453Z,1009.13
2022-09-24T05:39:58.695Z,1009.13
2022-09-24T05:40:59.041Z,1009.15
2022-09-24T05:41:59.164Z,1009.12
2022-09-24T05:42:59.425Z,1009.13
2022-09-24T05:43:59.665Z,1009.16
2022-09-24T05:44:59.916Z,1009.17
2022-09-24T05:46:00.248Z,1009.13
2022-09-24T05:47:00.620Z,1009.14
2022-09-24T05:48:00.774Z,1009.13
2022-09-24T05:49:01.106Z,1009.21
2022-09-24T05:50:01.266Z,1009.18
2022-09-24T05:51:01.547Z,1009.15
2022-09-24T05:52:01.816Z,1009.15
2022-09-24T05:53:02.089Z,1009.16
2022-09-24T05:54:02.364Z,1009.16
2022-09-24T05:55:02.609Z,1009.14
2022-09-24T05:56:02.867Z,1009.13
2022-09-24T05:57:03.125Z,1009.20
2022-09-24T05:58:03.408Z,1009.19
2022-09-24T05:59:03.657Z,1009.18
2022-09-24T06:00:03.928Z,1009.23
2022-09-24T06:01:04.161Z,1009.19
2022-09-24T06:02:04.558Z,1009.24
2022-09-24T06:03:04.760Z,1009.22
2022-09-24T06:04:08.774Z,1009.24
2022-09-24T06:05:05.304Z,1009.32
2022-09-24T06:06:05.557Z,1009.24
2022-09-24T06:07:05.822Z,1009.29
2022-09-24T06:08:06.092Z,1009.22
2022-09-24T06:09:06.361Z,1009.24
2022-09-24T06:10:06.684Z,1009.25
2022-09-24T06:11:06.932Z,1009.26
2022-09-24T06:12:07.231Z,1009.19
2022-09-24T06:13:07.484Z,1009.20
2022-09-24T06:14:07.755Z,1009.22
2022-09-24T06:15:08.008Z,1009.17
2022-09-24T06:16:08.408Z,1009.23
2022-09-24T06:17:09.053Z,1009.21
2022-09-24T06:18:08.835Z,1009.19
2022-09-24T06:19:09.129Z,1009.23
2022-09-24T06:20:09.420Z,1009.22
2022-09-24T06:21:09.675Z,1009.22
2022-09-24T06:22:09.936Z,1009.22
2022-09-24T06:23:10.228Z,1009.22
2022-09-24T06:24:10.497Z,1009.24
2022-09-24T06:25:10.759Z,1009.21
2022-09-24T06:26:11.038Z,1009.21
2022-09-24T06:27:11.306Z,1009.20
2022-09-24T06:28:11.570Z,1009.21
2022-09-24T06:29:11.910Z,1009.21
2022-09-24T06:30:12.168Z,1009.22
2022-09-24T06:31:12.519Z,1009.26
2022-09-24T06:32:12.706Z,1009.27
2022-09-24T06:33:13.140Z,1009.21
2022-09-24T06:34:13.238Z,1009.26
2022-09-24T06:35:13.480Z,1009.24
2022-09-24T06:36:13.739Z,1009.22
2022-09-24T06:37:14.020Z,1009.21
2022-09-24T06:38:14.282Z,1009.21
2022-09-24T06:39:14.541Z,1009.23
2022-09-24T06:40:14.883Z,1009.20
2022-09-24T06:41:15.068Z,1009.23
2022-09-24T06:42:15.339Z,1009.23
2022-09-24T06:43:15.601Z,1009.24
2022-09-24T06:44:15.871Z,1009.23
2022-09-24T06:45:16.118Z,1009.26
2022-09-24T06:46:16.417Z,1009.28
2022-09-24T06:47:16.693Z,1009.32
2022-09-24T06:48:16.966Z,1009.30
2022-09-24T06:49:17.234Z,1009.27
2022-09-24T06:50:17.494Z,1009.32
2022-09-24T06:51:17.756Z,1009.27
2022-09-24T06:52:18.016Z,1009.22
2022-09-24T06:53:18.267Z,1009.20
2022-09-24T06:54:18.583Z,1009.19
2022-09-24T06:55:18.841Z,1009.16
2022-09-24T06:56:19.095Z,1009.23
2022-09-24T06:57:19.364Z,1009.26
2022-09-24T06:58:19.635Z,1009.23
2022-09-24T06:59:19.896Z,1009.22
2022-09-24T07:00:20.173Z,1009.27
2022-09-24T07:01:20.496Z,1009.24
2022-09-24T07:02:20.839Z,1009.22
2022-09-24T07:03:21.009Z,1009.30
2022-09-24T07:04:21.277Z,1009.22
2022-09-24T07:05:21.527Z,1009.28
2022-09-24T07:06:21.797Z,1009.26
2022-09-24T07:07:22.056Z,1009.33
2022-09-24T07:08:22.318Z,1009.27
2022-09-24T07:09:22.589Z,1009.36
2022-09-24T07:10:22.847Z,1009.24
2022-09-24T07:11:23.108Z,1009.30
2022-09-24T07:12:23.380Z,1009.28
2022-09-24T07:13:23.641Z,1009.30
2022-09-24T07:14:23.901Z,1009.25
2022-09-24T07:15:24.163Z,1009.25
2022-09-24T07:16:24.519Z,1009.25
2022-09-24T07:17:26.171Z,1009.27
2022-09-24T07:18:25.008Z,1009.29
2022-09-24T07:19:25.278Z,1009.26
2022-09-24T07:20:25.531Z,1009.30
2022-09-24T07:21:25.772Z,1009.26
2022-09-24T07:22:26.033Z,1009.30
2022-09-24T07:23:26.312Z,1009.32
2022-09-24T07:24:26.573Z,1009.35
2022-09-24T07:25:26.820Z,1009.39
2022-09-24T07:26:27.076Z,1009.32
2022-09-24T07:27:27.324Z,1009.42
2022-09-24T07:28:27.605Z,1009.37
2022-09-24T07:29:27.855Z,1009.41
2022-09-24T07:30:28.126Z,1009.35
2022-09-24T07:31:28.488Z,1009.39
2022-09-24T07:32:30.037Z,1009.41
2022-09-24T07:33:28.865Z,1009.43
2022-09-24T07:34:29.116Z,1009.43
2022-09-24T07:35:29.367Z,1009.50
2022-09-24T07:36:29.627Z,1009.52
2022-09-24T07:37:29.919Z,1009.47
2022-09-24T07:38:30.149Z,1009.47
2022-09-24T07:39:30.403Z,1009.44
2022-09-24T07:40:30.721Z,1009.43
2022-09-24T07:41:31.003Z,1009.45
2022-09-24T07:42:31.268Z,1009.45
2022-09-24T07:43:31.598Z,1009.51
2022-09-24T07:44:31.852Z,1009.50
2022-09-24T07:45:32.859Z,1009.55
2022-09-24T07:46:33.164Z,1009.56
2022-09-24T07:47:32.821Z,1009.53
2022-09-24T07:48:32.911Z,1009.58
2022-09-24T07:49:33.930Z,1009.60
2022-09-24T07:50:33.531Z,1009.58
2022-09-24T07:51:33.782Z,1009.57
2022-09-24T07:52:34.069Z,1009.52
2022-09-24T07:53:34.316Z,1009.48
2022-09-24T07:54:34.573Z,1009.50
2022-09-24T07:55:34.823Z,1009.53
2022-09-24T07:56:35.072Z,1009.52
2022-09-24T07:57:35.364Z,1009.50
2022-09-24T07:58:35.603Z,1009.51
2022-09-24T07:59:35.851Z,1009.56
2022-09-24T08:00:36.098Z,1009.48
2022-09-24T08:01:36.410Z,1009.47
2022-09-24T08:02:36.678Z,1009.48
2022-09-24T08:03:37.009Z,1009.49
2022-09-24T08:04:37.374Z,1009.45
2022-09-24T08:05:37.496Z,1009.43
2022-09-24T08:06:40.488Z,1009.38
2022-09-24T08:07:38.076Z,1009.29
2022-09-24T08:08:38.379Z,1009.35
2022-09-24T08:09:38.628Z,1009.36
2022-09-24T08:10:38.865Z,1009.41
2022-09-24T08:11:39.129Z,1009.42
2022-09-24T08:12:39.416Z,1009.40
2022-09-24T08:13:39.689Z,1009.44
2022-09-24T08:14:39.975Z,1009.42
2022-09-24T08:15:40.418Z,1009.48
2022-09-24T08:16:40.530Z,1009.47
2022-09-24T08:17:41.290Z,1009.48
2022-09-24T08:18:41.111Z,1009.52
2022-09-24T08:19:41.373Z,1009.49
2022-09-24T08:20:41.674Z,1009.47
2022-09-24T08:21:41.921Z,1009.52
2022-09-24T08:22:42.223Z,1009.59
2022-09-24T08:23:42.513Z,1009.55
2022-09-24T08:24:42.803Z,1009.52
2022-09-24T08:25:43.113Z,1009.57
2022-09-24T08:26:43.374Z,1009.55
2022-09-24T08:27:43.733Z,1009.52
2022-09-24T08:28:43.857Z,1009.49
2022-09-24T08:29:44.140Z,1009.51
2022-09-24T08:30:44.384Z,1009.52
2022-09-24T08:31:44.746Z,1009.57
2022-09-24T08:32:44.888Z,1009.56
2022-09-24T08:33:45.136Z,1009.54
2022-09-24T08:34:45.416Z,1009.58
2022-09-24T08:35:45.687Z,1009.59
2022-09-24T08:36:45.956Z,1009.60
2022-09-24T08:37:46.235Z,1009.59
2022-09-24T08:38:46.497Z,1009.56
2022-09-24T08:39:46.756Z,1009.59
2022-09-24T08:40:47.103Z,1009.63
2022-09-24T08:41:47.242Z,1009.60
2022-09-24T08:42:47.566Z,1009.59
2022-09-24T08:43:47.848Z,1009.59
2022-09-24T08:44:48.109Z,1009.61
2022-09-24T08:45:48.371Z,1009.66
2022-09-24T08:46:48.673Z,1009.63
2022-09-24T08:47:48.918Z,1009.54
2022-09-24T08:48:49.161Z,1009.55
2022-09-24T08:49:49.481Z,1009.57
2022-09-24T08:50:49.743Z,1009.55
2022-09-24T08:51:50.009Z,1009.52
2022-09-24T08:52:50.292Z,1009.53
2022-09-24T08:53:50.564Z,1009.49
2022-09-24T08:54:50.834Z,1009.52
2022-09-24T08:55:51.112Z,1009.54
2022-09-24T08:56:51.385Z,1009.54
2022-09-24T08:57:51.654Z,1009.53
2022-09-24T08:58:51.925Z,1009.53
2022-09-24T08:59:52.189Z,1009.50
2022-09-24T09:00:52.453Z,1009.51
2022-09-24T09:01:52.871Z,1009.51
2022-09-24T09:02:53.063Z,1009.57
2022-09-24T09:03:53.324Z,1009.53
2022-09-24T09:04:53.577Z,1009.57
2022-09-24T09:05:53.912Z,1009.50
2022-09-24T09:06:54.159Z,1009.51
2022-09-24T09:07:54.420Z,1009.53
2022-09-24T09:09:06.719Z,1009.57
2022-09-24T09:09:56.075Z,1009.55
2022-09-24T09:10:55.267Z,1009.61
2022-09-24T09:11:55.545Z,1009.55
2022-09-24T09:12:55.869Z,1009.57
2022-09-24T09:13:56.140Z,1009.55
2022-09-24T09:14:56.399Z,1009.50
2022-09-24T09:15:56.783Z,1009.53
2022-09-24T09:16:56.902Z,1009.55
2022-09-24T09:17:57.330Z,1009.53
2022-09-24T09:18:57.433Z,1009.54
2022-09-24T09:19:57.727Z,1009.52
2022-09-24T09:20:58.023Z,1009.51
2022-09-24T09:21:58.282Z,1009.51
2022-09-24T09:22:58.546Z,1009.52
2022-09-24T09:23:58.803Z,1009.50
2022-09-24T09:25:03.716Z,1009.54
2022-09-24T09:26:00.296Z,1009.56
2022-09-24T09:26:59.761Z,1009.53
2022-09-24T09:27:59.914Z,1009.51
2022-09-24T09:29:00.164Z,1009.56
2022-09-24T09:30:00.443Z,1009.49
2022-09-24T09:31:00.744Z,1009.47
2022-09-24T09:32:01.076Z,1009.52
2022-09-24T09:33:01.185Z,1009.55
2022-09-24T09:34:01.641Z,1009.50
2022-09-24T09:35:01.802Z,1009.50
2022-09-24T09:36:02.114Z,1009.49
2022-09-24T09:37:02.384Z,1009.45
2022-09-24T09:38:02.695Z,1009.43
2022-09-24T09:39:02.989Z,1009.46
2022-09-24T09:40:03.272Z,1009.44
2022-09-24T09:41:03.838Z,1009.41
2022-09-24T09:42:03.830Z,1009.44
2022-09-24T09:43:04.216Z,1009.39
2022-09-24T09:44:04.394Z,1009.43
2022-09-24T09:45:04.661Z,1009.44
2022-09-24T09:46:04.994Z,1009.46
2022-09-24T09:47:05.242Z,1009.46
2022-09-24T09:48:05.573Z,1009.46
2022-09-24T09:49:05.838Z,1009.44
2022-09-24T09:50:06.099Z,1009.50
2022-09-24T09:51:06.386Z,1009.48
2022-09-24T09:52:06.654Z,1009.48
2022-09-24T09:53:06.925Z,1009.55
2022-09-24T09:54:07.320Z,1009.50
2022-09-24T09:55:07.557Z,1009.47
2022-09-24T09:56:07.745Z,1009.43
2022-09-24T09:57:08.018Z,1009.43
2022-09-24T09:58:08.298Z,1009.47
2022-09-24T09:59:08.562Z,1009.47
2022-09-24T10:00:08.856Z,1009.48
2022-09-24T10:01:09.126Z,1009.49
2022-09-24T10:02:09.465Z,1009.48
2022-09-24T10:03:09.703Z,1009.45
2022-09-24T10:04:09.911Z,1009.45
2022-09-24T10:05:10.804Z,1009.45
2022-09-24T10:06:11.439Z,1009.43
2022-09-24T10:07:10.739Z,1009.46
2022-09-24T10:08:11.039Z,1009.45
2022-09-24T10:09:11.293Z,1009.41
2022-09-24T10:10:11.564Z,1009.43
2022-09-24T10:11:11.811Z,1009.45
2022-09-24T10:12:13.023Z,1009.44
2022-09-24T10:13:12.353Z,1009.48
2022-09-24T10:14:12.611Z,1009.40
2022-09-24T10:15:12.863Z,1009.39
2022-09-24T10:16:13.149Z,1009.38
2022-09-24T10:17:13.443Z,1009.38
2022-09-24T10:18:13.712Z,1009.34
2022-09-24T10:19:13.967Z,1009.32
2022-09-24T10:20:14.237Z,1009.38
2022-09-24T10:21:14.544Z,1009.37
2022-09-24T10:22:14.803Z,1009.38
2022-09-24T10:23:15.097Z,1009.36
2022-09-24T10:24:15.422Z,1009.38
2022-09-24T10:25:15.687Z,1009.33
2022-09-24T10:26:15.984Z,1009.36
2022-09-24T10:27:16.245Z,1009.36
2022-09-24T10:28:16.778Z,1009.32
2022-09-24T10:29:16.797Z,1009.35
2022-09-24T10:30:17.057Z,1009.37
2022-09-24T10:31:17.377Z,1009.34
2022-09-24T10:32:17.693Z,1009.34
2022-09-24T10:33:17.942Z,1009.36
2022-09-24T10:34:18.211Z,1009.40
2022-09-24T10:35:18.487Z,1009.40
2022-09-24T10:36:18.767Z,1009.40
2022-09-24T10:37:19.177Z,1009.39
2022-09-24T10:38:19.339Z,1009.40
2022-09-24T10:39:19.731Z,1009.41
2022-09-24T10:40:19.938Z,1009.40
2022-09-24T10:41:20.184Z,1009.38
2022-09-24T10:42:20.502Z,1009.33
2022-09-24T10:43:20.773Z,1009.37
2022-09-24T10:44:21.111Z,1009.37
2022-09-24T10:45:21.389Z,1009.35
2022-09-24T10:46:21.784Z,1009.33
2022-09-24T10:47:22.006Z,1009.29
2022-09-24T10:48:22.344Z,1009.31
2022-09-24T10:49:22.657Z,1009.33
2022-09-24T10:50:23.086Z,1009.27
2022-09-24T10:51:28.788Z,1009.29
2022-09-24T10:52:24.478Z,1009.37
2022-09-24T10:53:23.673Z,1009.33
2022-09-24T10:54:23.936Z,1009.30
2022-09-24T10:55:24.274Z,1009.27
2022-09-24T10:56:24.650Z,1009.33
2022-09-24T10:57:24.841Z,1009.32
2022-09-24T10:58:25.155Z,1009.32
2022-09-24T10:59:25.459Z,1009.27
2022-09-24T11:00:25.786Z,1009.29
2022-09-24T11:01:26.136Z,1009.30
2022-09-24T11:02:26.517Z,1009.26
2022-09-24T11:03:26.759Z,1009.23
2022-09-24T11:04:27.126Z,1009.29
2022-09-24T11:05:27.103Z,1009.30
2022-09-24T11:06:27.360Z,1009.25
2022-09-24T11:07:27.650Z,1009.26
2022-09-24T11:08:27.939Z,1009.27
2022-09-24T11:09:28.259Z,1009.29
2022-09-24T11:10:28.527Z,1009.27
2022-09-24T11:11:28.813Z,1009.23
2022-09-24T11:12:29.156Z,1009.32
2022-09-24T11:13:29.425Z,1009.28
2022-09-24T11:14:29.693Z,1009.26
2022-09-24T11:15:29.975Z,1009.30
2022-09-24T11:16:30.319Z,1009.30
2022-09-24T11:17:30.479Z,1009.26
2022-09-24T11:18:30.775Z,1009.28
2022-09-24T11:19:31.038Z,1009.25
2022-09-24T11:20:31.344Z,1009.21
2022-09-24T11:21:31.607Z,1009.30
2022-09-24T11:22:31.925Z,1009.29
2022-09-24T11:23:32.200Z,1009.25
2022-09-24T11:24:32.478Z,1009.25
2022-09-24T11:25:32.738Z,1009.27
2022-09-24T11:26:33.089Z,1009.20
2022-09-24T11:27:33.422Z,1009.24
2022-09-24T11:28:33.721Z,1009.22
2022-09-24T11:29:37.178Z,1009.19
2022-09-24T11:30:34.300Z,1009.21
2022-09-24T11:31:35.357Z,1009.15
2022-09-24T11:32:34.823Z,1009.14
2022-09-24T11:33:35.083Z,1009.11
2022-09-24T11:34:35.362Z,1009.11
2022-09-24T11:35:35.642Z,1009.07
2022-09-24T11:36:35.931Z,1009.11
2022-09-24T11:37:36.238Z,1009.11
2022-09-24T11:38:36.592Z,1009.12
2022-09-24T11:39:36.746Z,1009.16
2022-09-24T11:40:37.072Z,1009.13
2022-09-24T11:41:37.335Z,1009.14
2022-09-24T11:42:37.617Z,1009.10
2022-09-24T11:43:38.786Z,1009.11
2022-09-24T11:44:38.251Z,1009.12
2022-09-24T11:45:38.527Z,1009.05
2022-09-24T11:46:38.825Z,1009.14
2022-09-24T11:47:39.079Z,1009.11
2022-09-24T11:48:39.349Z,1009.14
2022-09-24T11:49:39.606Z,1009.11
2022-09-24T11:50:43.631Z,1009.09
2022-09-24T11:51:41.376Z,1009.12
2022-09-24T11:52:40.463Z,1009.12
2022-09-24T11:53:40.746Z,1009.11
2022-09-24T11:54:41.031Z,1009.08
2022-09-24T11:55:41.290Z,1009.11
2022-09-24T11:56:41.559Z,1009.07
2022-09-24T11:57:41.850Z,1009.10
2022-09-24T11:58:42.200Z,1009.06
2022-09-24T11:59:42.474Z,1009.07
2022-09-24T12:00:42.896Z,1009.05
2022-09-24T12:01:43.046Z,1009.05
2022-09-24T12:02:43.387Z,1009.08
2022-09-24T12:03:43.685Z,1009.10
2022-09-24T12:04:43.961Z,1009.10
2022-09-24T12:05:44.234Z,1009.05
2022-09-24T12:06:44.549Z,1009.10
2022-09-24T12:07:44.835Z,1009.07
2022-09-24T12:08:45.110Z,1009.04